sensor_id;sensor_type;location;lat;lon;timestamp;P1;durP1;ratioP1;P2;durP2;ratioP2
55794;SDS011;41716;51.910;4.430;2022-12-18T00:01:38;36.53;;;17.27;;
55794;SDS011;41716;51.910;4.430;2022-12-18T00:06:40;40.15;;;19.33;;
55794;SDS011;41716;51.910;4.430;2022-12-18T00:11:43;41.80;;;18.40;;
55794;SDS011;41716;51.910;4.430;2022-12-18T00:16:45;38.20;;;16.35;;
55794;SDS011;41716;51.910;4.430;2022-12-18T00:21:47;35.53;;;17.52;;
55794;SDS011;41716;51.910;4.430;2022-12-18T00:26:50;36.33;;;15.23;;
55794;SDS011;41716;51.910;4.430;2022-12-18T00:31:52;41.63;;;18.98;;
55794;SDS011;41716;51.910;4.430;2022-12-18T00:36:54;39.88;;;18.02;;
55794;SDS011;41716;51.910;4.430;2022-12-18T00:41:57;39.97;;;17.73;;
55794;SDS011;41716;51.910;4.430;2022-12-18T00:47:16;41.70;;;18.98;;
55794;SDS011;41716;51.910;4.430;2022-12-18T00:52:17;45.38;;;20.00;;
55794;SDS011;41716;51.910;4.430;2022-12-18T00:57:20;43.55;;;19.45;;
55794;SDS011;41716;51.910;4.430;2022-12-18T01:02:22;43.08;;;17.63;;
55794;SDS011;41716;51.910;4.430;2022-12-18T01:07:24;40.97;;;17.65;;
55794;SDS011;41716;51.910;4.430;2022-12-18T01:12:27;41.05;;;18.50;;
55794;SDS011;41716;51.910;4.430;2022-12-18T01:17:29;37.65;;;16.52;;
55794;SDS011;41716;51.910;4.430;2022-12-18T01:22:31;41.90;;;16.70;;
55794;SDS011;41716;51.910;4.430;2022-12-18T01:27:34;37.65;;;17.10;;
55794;SDS011;41716;51.910;4.430;2022-12-18T01:32:36;40.97;;;17.02;;
55794;SDS011;41716;51.910;4.430;2022-12-18T01:37:38;40.05;;;17.38;;
55794;SDS011;41716;51.910;4.430;2022-12-18T01:42:41;36.58;;;17.25;;
55794;SDS011;41716;51.910;4.430;2022-12-18T01:47:43;38.38;;;16.08;;
55794;SDS011;41716;51.910;4.430;2022-12-18T01:57:52;35.58;;;16.83;;
55794;SDS011;41716;51.910;4.430;2022-12-18T02:02:57;39.78;;;17.83;;
55794;SDS011;41716;51.910;4.430;2022-12-18T02:08:01;40.53;;;17.33;;
55794;SDS011;41716;51.910;4.430;2022-12-18T02:13:12;34.15;;;16.17;;
55794;SDS011;41716;51.910;4.430;2022-12-18T02:18:21;36.70;;;15.57;;
55794;SDS011;41716;51.910;4.430;2022-12-18T02:23:35;35.13;;;16.08;;
55794;SDS011;41716;51.910;4.430;2022-12-18T02:28:49;34.78;;;15.65;;
55794;SDS011;41716;51.910;4.430;2022-12-18T02:33:55;34.92;;;15.05;;
55794;SDS011;41716;51.910;4.430;2022-12-18T02:39:00;33.00;;;14.75;;
55794;SDS011;41716;51.910;4.430;2022-12-18T02:44:07;36.33;;;15.65;;
55794;SDS011;41716;51.910;4.430;2022-12-18T02:49:13;31.30;;;14.60;;
55794;SDS011;41716;51.910;4.430;2022-12-18T02:54:27;30.38;;;14.82;;
55794;SDS011;41716;51.910;4.430;2022-12-18T02:59:49;30.45;;;13.90;;
55794;SDS011;41716;51.910;4.430;2022-12-18T03:04:59;29.52;;;14.68;;
55794;SDS011;41716;51.910;4.430;2022-12-18T03:10:07;34.47;;;15.25;;
55794;SDS011;41716;51.910;4.430;2022-12-18T03:15:14;30.73;;;13.95;;
55794;SDS011;41716;51.910;4.430;2022-12-18T03:20:21;31.00;;;14.88;;
55794;SDS011;41716;51.910;4.430;2022-12-18T03:25:24;29.50;;;14.15;;
55794;SDS011;41716;51.910;4.430;2022-12-18T03:35:36;31.08;;;13.27;;
55794;SDS011;41716;51.910;4.430;2022-12-18T03:40:43;29.63;;;13.68;;
55794;SDS011;41716;51.910;4.430;2022-12-18T03:45:54;30.08;;;13.48;;
55794;SDS011;41716;51.910;4.430;2022-12-18T03:51:05;28.83;;;13.05;;
55794;SDS011;41716;51.910;4.430;2022-12-18T03:56:11;27.70;;;12.95;;
55794;SDS011;41716;51.910;4.430;2022-12-18T04:01:18;30.55;;;13.07;;
55794;SDS011;41716;51.910;4.430;2022-12-18T04:06:24;28.20;;;13.02;;
55794;SDS011;41716;51.910;4.430;2022-12-18T04:11:26;29.65;;;13.50;;
55794;SDS011;41716;51.910;4.430;2022-12-18T04:16:29;31.13;;;14.23;;
55794;SDS011;41716;51.910;4.430;2022-12-18T04:21:31;28.52;;;13.32;;
55794;SDS011;41716;51.910;4.430;2022-12-18T04:26:33;28.25;;;13.57;;
55794;SDS011;41716;51.910;4.430;2022-12-18T04:31:36;28.40;;;13.30;;
55794;SDS011;41716;51.910;4.430;2022-12-18T04:36:37;29.17;;;12.52;;
55794;SDS011;41716;51.910;4.430;2022-12-18T04:41:39;27.88;;;13.23;;
55794;SDS011;41716;51.910;4.430;2022-12-18T04:46:43;28.90;;;12.25;;
55794;SDS011;41716;51.910;4.430;2022-12-18T04:51:45;24.92;;;11.43;;
55794;SDS011;41716;51.910;4.430;2022-12-18T04:56:46;25.23;;;11.80;;
55794;SDS011;41716;51.910;4.430;2022-12-18T05:01:49;24.25;;;11.52;;
55794;SDS011;41716;51.910;4.430;2022-12-18T05:06:51;24.90;;;12.05;;
55794;SDS011;41716;51.910;4.430;2022-12-18T05:11:53;23.42;;;11.20;;
55794;SDS011;41716;51.910;4.430;2022-12-18T05:16:56;25.58;;;11.77;;
55794;SDS011;41716;51.910;4.430;2022-12-18T05:21:58;26.70;;;11.88;;
55794;SDS011;41716;51.910;4.430;2022-12-18T05:26:59;23.25;;;11.18;;
55794;SDS011;41716;51.910;4.430;2022-12-18T05:32:02;19.63;;;10.07;;
55794;SDS011;41716;51.910;4.430;2022-12-18T05:37:04;21.47;;;10.03;;
55794;SDS011;41716;51.910;4.430;2022-12-18T05:42:06;19.88;;;10.13;;
55794;SDS011;41716;51.910;4.430;2022-12-18T05:47:09;20.27;;;10.23;;
55794;SDS011;41716;51.910;4.430;2022-12-18T05:52:11;20.60;;;10.38;;
55794;SDS011;41716;51.910;4.430;2022-12-18T05:57:13;19.08;;;9.70;;
55794;SDS011;41716;51.910;4.430;2022-12-18T06:02:16;19.98;;;9.68;;
55794;SDS011;41716;51.910;4.430;2022-12-18T06:07:18;16.48;;;8.68;;
55794;SDS011;41716;51.910;4.430;2022-12-18T06:12:19;18.02;;;9.00;;
55794;SDS011;41716;51.910;4.430;2022-12-18T06:17:23;17.52;;;8.98;;
55794;SDS011;41716;51.910;4.430;2022-12-18T06:22:30;19.42;;;9.50;;
55794;SDS011;41716;51.910;4.430;2022-12-18T06:27:32;18.45;;;9.32;;
55794;SDS011;41716;51.910;4.430;2022-12-18T06:32:35;17.73;;;9.32;;
55794;SDS011;41716;51.910;4.430;2022-12-18T06:37:37;18.90;;;9.35;;
55794;SDS011;41716;51.910;4.430;2022-12-18T06:42:39;15.77;;;8.32;;
55794;SDS011;41716;51.910;4.430;2022-12-18T06:47:42;16.20;;;9.20;;
55794;SDS011;41716;51.910;4.430;2022-12-18T06:52:44;18.55;;;9.77;;
55794;SDS011;41716;51.910;4.430;2022-12-18T06:57:45;16.77;;;8.80;;
55794;SDS011;41716;51.910;4.430;2022-12-18T07:02:48;17.83;;;8.77;;
55794;SDS011;41716;51.910;4.430;2022-12-18T07:07:50;20.73;;;9.52;;
55794;SDS011;41716;51.910;4.430;2022-12-18T07:12:52;16.08;;;8.90;;
55794;SDS011;41716;51.910;4.430;2022-12-18T07:17:55;14.75;;;8.25;;
55794;SDS011;41716;51.910;4.430;2022-12-18T07:22:56;16.10;;;7.95;;
55794;SDS011;41716;51.910;4.430;2022-12-18T07:27:58;13.82;;;7.55;;
55794;SDS011;41716;51.910;4.430;2022-12-18T07:33:01;14.57;;;7.18;;
55794;SDS011;41716;51.910;4.430;2022-12-18T07:38:03;13.50;;;7.28;;
55794;SDS011;41716;51.910;4.430;2022-12-18T07:43:05;15.90;;;7.53;;
55794;SDS011;41716;51.910;4.430;2022-12-18T07:48:08;14.48;;;7.13;;
55794;SDS011;41716;51.910;4.430;2022-12-18T07:53:09;10.90;;;7.32;;
55794;SDS011;41716;51.910;4.430;2022-12-18T07:58:11;14.30;;;6.85;;
55794;SDS011;41716;51.910;4.430;2022-12-18T08:03:14;12.60;;;6.68;;
55794;SDS011;41716;51.910;4.430;2022-12-18T08:08:16;12.90;;;7.00;;
55794;SDS011;41716;51.910;4.430;2022-12-18T08:13:18;13.63;;;7.55;;
55794;SDS011;41716;51.910;4.430;2022-12-18T08:18:21;13.40;;;7.40;;
55794;SDS011;41716;51.910;4.430;2022-12-18T08:23:23;13.32;;;7.78;;
55794;SDS011;41716;51.910;4.430;2022-12-18T08:28:25;16.30;;;8.10;;
55794;SDS011;41716;51.910;4.430;2022-12-18T08:33:28;12.50;;;7.25;;
55794;SDS011;41716;51.910;4.430;2022-12-18T08:38:29;13.18;;;7.53;;
55794;SDS011;41716;51.910;4.430;2022-12-18T08:43:32;11.38;;;6.60;;
55794;SDS011;41716;51.910;4.430;2022-12-18T08:48:54;12.05;;;6.88;;
55794;SDS011;41716;51.910;4.430;2022-12-18T08:53:56;14.48;;;7.10;;
55794;SDS011;41716;51.910;4.430;2022-12-18T08:58:57;15.05;;;8.10;;
55794;SDS011;41716;51.910;4.430;2022-12-18T09:04:01;14.38;;;7.63;;
55794;SDS011;41716;51.910;4.430;2022-12-18T09:09:03;14.02;;;7.65;;
55794;SDS011;41716;51.910;4.430;2022-12-18T09:14:05;13.98;;;7.72;;
55794;SDS011;41716;51.910;4.430;2022-12-18T09:19:09;13.93;;;7.18;;
55794;SDS011;41716;51.910;4.430;2022-12-18T09:24:12;13.02;;;7.47;;
55794;SDS011;41716;51.910;4.430;2022-12-18T09:29:14;11.60;;;7.43;;
55794;SDS011;41716;51.910;4.430;2022-12-18T09:34:18;12.00;;;6.32;;
55794;SDS011;41716;51.910;4.430;2022-12-18T09:39:21;14.63;;;7.45;;
55794;SDS011;41716;51.910;4.430;2022-12-18T09:44:24;12.32;;;7.20;;
55794;SDS011;41716;51.910;4.430;2022-12-18T09:54:32;11.48;;;6.88;;
55794;SDS011;41716;51.910;4.430;2022-12-18T09:59:39;12.98;;;7.35;;
55794;SDS011;41716;51.910;4.430;2022-12-18T10:04:44;13.55;;;7.65;;
55794;SDS011;41716;51.910;4.430;2022-12-18T10:09:58;12.48;;;7.32;;
55794;SDS011;41716;51.910;4.430;2022-12-18T10:15:10;11.65;;;6.78;;
55794;SDS011;41716;51.910;4.430;2022-12-18T10:20:23;10.30;;;6.53;;
55794;SDS011;41716;51.910;4.430;2022-12-18T10:25:31;10.23;;;6.45;;
55794;SDS011;41716;51.910;4.430;2022-12-18T10:30:39;11.55;;;6.40;;
55794;SDS011;41716;51.910;4.430;2022-12-18T10:35:44;11.73;;;6.87;;
55794;SDS011;41716;51.910;4.430;2022-12-18T10:40:51;11.65;;;6.85;;
55794;SDS011;41716;51.910;4.430;2022-12-18T10:51:21;11.80;;;6.57;;
55794;SDS011;41716;51.910;4.430;2022-12-18T10:56:26;11.05;;;6.45;;
55794;SDS011;41716;51.910;4.430;2022-12-18T11:01:31;11.00;;;6.28;;
55794;SDS011;41716;51.910;4.430;2022-12-18T11:06:56;11.27;;;6.85;;
55794;SDS011;41716;51.910;4.430;2022-12-18T11:11:59;10.75;;;6.55;;
55794;SDS011;41716;51.910;4.430;2022-12-18T11:17:03;13.63;;;7.30;;
55794;SDS011;41716;51.910;4.430;2022-12-18T11:22:18;10.80;;;6.10;;
55794;SDS011;41716;51.910;4.430;2022-12-18T11:27:22;11.63;;;6.55;;
55794;SDS011;41716;51.910;4.430;2022-12-18T11:32:26;11.55;;;6.53;;
55794;SDS011;41716;51.910;4.430;2022-12-18T11:37:33;11.32;;;6.35;;
55794;SDS011;41716;51.910;4.430;2022-12-18T11:42:38;11.60;;;6.70;;
55794;SDS011;41716;51.910;4.430;2022-12-18T11:47:46;12.20;;;6.43;;
55794;SDS011;41716;51.910;4.430;2022-12-18T11:52:54;12.85;;;7.32;;
55794;SDS011;41716;51.910;4.430;2022-12-18T11:57:58;10.45;;;5.70;;
55794;SDS011;41716;51.910;4.430;2022-12-18T12:03:22;10.50;;;6.15;;
55794;SDS011;41716;51.910;4.430;2022-12-18T12:08:39;11.63;;;6.78;;
55794;SDS011;41716;51.910;4.430;2022-12-18T12:13:55;11.05;;;6.38;;
55794;SDS011;41716;51.910;4.430;2022-12-18T12:19:14;11.93;;;5.97;;
55794;SDS011;41716;51.910;4.430;2022-12-18T12:24:29;10.35;;;6.00;;
55794;SDS011;41716;51.910;4.430;2022-12-18T12:29:41;10.65;;;6.32;;
55794;SDS011;41716;51.910;4.430;2022-12-18T12:34:55;12.48;;;7.47;;
55794;SDS011;41716;51.910;4.430;2022-12-18T12:40:12;12.77;;;7.10;;
55794;SDS011;41716;51.910;4.430;2022-12-18T12:45:18;11.68;;;6.72;;
55794;SDS011;41716;51.910;4.430;2022-12-18T12:50:24;11.00;;;6.85;;
55794;SDS011;41716;51.910;4.430;2022-12-18T12:55:28;11.52;;;6.93;;
55794;SDS011;41716;51.910;4.430;2022-12-18T13:00:33;11.82;;;7.25;;
55794;SDS011;41716;51.910;4.430;2022-12-18T13:05:42;10.40;;;6.75;;
55794;SDS011;41716;51.910;4.430;2022-12-18T13:10:51;13.27;;;7.25;;
55794;SDS011;41716;51.910;4.430;2022-12-18T13:16:14;12.63;;;7.47;;
55794;SDS011;41716;51.910;4.430;2022-12-18T13:21:21;13.05;;;6.88;;
55794;SDS011;41716;51.910;4.430;2022-12-18T13:26:37;12.07;;;7.03;;
55794;SDS011;41716;51.910;4.430;2022-12-18T13:31:58;14.95;;;7.00;;
55794;SDS011;41716;51.910;4.430;2022-12-18T13:42:44;12.57;;;7.43;;
55794;SDS011;41716;51.910;4.430;2022-12-18T13:48:03;12.68;;;7.90;;
55794;SDS011;41716;51.910;4.430;2022-12-18T13:53:06;13.90;;;7.53;;
55794;SDS011;41716;51.910;4.430;2022-12-18T13:58:14;14.35;;;7.80;;
55794;SDS011;41716;51.910;4.430;2022-12-18T14:03:17;15.55;;;7.28;;
55794;SDS011;41716;51.910;4.430;2022-12-18T14:08:21;13.60;;;7.18;;
55794;SDS011;41716;51.910;4.430;2022-12-18T14:13:26;12.05;;;6.90;;
55794;SDS011;41716;51.910;4.430;2022-12-18T14:18:33;10.85;;;6.95;;
55794;SDS011;41716;51.910;4.430;2022-12-18T14:23:43;11.15;;;6.43;;
55794;SDS011;41716;51.910;4.430;2022-12-18T14:28:47;11.77;;;7.35;;
55794;SDS011;41716;51.910;4.430;2022-12-18T14:33:49;10.63;;;6.97;;
55794;SDS011;41716;51.910;4.430;2022-12-18T14:38:51;11.75;;;7.25;;
55794;SDS011;41716;51.910;4.430;2022-12-18T14:43:56;14.68;;;7.70;;
55794;SDS011;41716;51.910;4.430;2022-12-18T14:49:17;11.90;;;7.18;;
55794;SDS011;41716;51.910;4.430;2022-12-18T14:54:22;12.07;;;6.45;;
55794;SDS011;41716;51.910;4.430;2022-12-18T14:59:26;13.13;;;7.45;;
55794;SDS011;41716;51.910;4.430;2022-12-18T15:04:30;13.52;;;7.60;;
55794;SDS011;41716;51.910;4.430;2022-12-18T15:09:33;11.77;;;7.07;;
55794;SDS011;41716;51.910;4.430;2022-12-18T15:14:39;12.30;;;8.57;;
55794;SDS011;41716;51.910;4.430;2022-12-18T15:19:42;13.80;;;8.00;;
55794;SDS011;41716;51.910;4.430;2022-12-18T15:24:45;13.83;;;9.00;;
55794;SDS011;41716;51.910;4.430;2022-12-18T15:30:00;10.27;;;7.13;;
55794;SDS011;41716;51.910;4.430;2022-12-18T15:35:18;12.30;;;7.57;;
55794;SDS011;41716;51.910;4.430;2022-12-18T15:45:26;12.93;;;8.07;;
55794;SDS011;41716;51.910;4.430;2022-12-18T15:50:28;13.73;;;7.65;;
55794;SDS011;41716;51.910;4.430;2022-12-18T15:55:30;14.30;;;8.20;;
55794;SDS011;41716;51.910;4.430;2022-12-18T16:00:51;13.52;;;8.38;;
55794;SDS011;41716;51.910;4.430;2022-12-18T16:05:53;13.90;;;8.75;;
55794;SDS011;41716;51.910;4.430;2022-12-18T16:10:55;13.50;;;8.10;;
55794;SDS011;41716;51.910;4.430;2022-12-18T16:15:58;13.55;;;8.07;;
55794;SDS011;41716;51.910;4.430;2022-12-18T16:21:00;13.70;;;8.55;;
55794;SDS011;41716;51.910;4.430;2022-12-18T16:26:02;14.98;;;9.20;;
55794;SDS011;41716;51.910;4.430;2022-12-18T16:31:06;16.60;;;8.90;;
55794;SDS011;41716;51.910;4.430;2022-12-18T16:36:08;17.13;;;8.45;;
55794;SDS011;41716;51.910;4.430;2022-12-18T16:41:15;15.82;;;9.13;;
55794;SDS011;41716;51.910;4.430;2022-12-18T16:46:33;15.43;;;8.40;;
55794;SDS011;41716;51.910;4.430;2022-12-18T16:51:34;13.23;;;7.97;;
55794;SDS011;41716;51.910;4.430;2022-12-18T16:56:36;17.60;;;8.57;;
55794;SDS011;41716;51.910;4.430;2022-12-18T17:01:39;14.90;;;9.20;;
55794;SDS011;41716;51.910;4.430;2022-12-18T17:06:42;17.60;;;8.95;;
55794;SDS011;41716;51.910;4.430;2022-12-18T17:11:47;14.75;;;8.52;;
55794;SDS011;41716;51.910;4.430;2022-12-18T17:16:50;15.40;;;8.73;;
55794;SDS011;41716;51.910;4.430;2022-12-18T17:21:52;18.23;;;8.67;;
55794;SDS011;41716;51.910;4.430;2022-12-18T17:26:54;15.50;;;8.95;;
55794;SDS011;41716;51.910;4.430;2022-12-18T17:31:57;16.20;;;10.15;;
55794;SDS011;41716;51.910;4.430;2022-12-18T17:36:59;15.80;;;9.80;;
55794;SDS011;41716;51.910;4.430;2022-12-18T17:42:00;17.15;;;9.68;;
55794;SDS011;41716;51.910;4.430;2022-12-18T17:47:04;18.05;;;9.38;;
55794;SDS011;41716;51.910;4.430;2022-12-18T17:52:05;16.05;;;10.13;;
55794;SDS011;41716;51.910;4.430;2022-12-18T17:57:07;17.98;;;10.32;;
55794;SDS011;41716;51.910;4.430;2022-12-18T18:02:11;18.20;;;10.05;;
55794;SDS011;41716;51.910;4.430;2022-12-18T18:07:12;16.75;;;9.10;;
55794;SDS011;41716;51.910;4.430;2022-12-18T18:12:14;17.65;;;9.82;;
55794;SDS011;41716;51.910;4.430;2022-12-18T18:17:35;17.23;;;9.35;;
55794;SDS011;41716;51.910;4.430;2022-12-18T18:22:36;17.55;;;9.30;;
55794;SDS011;41716;51.910;4.430;2022-12-18T18:27:38;18.90;;;10.50;;
55794;SDS011;41716;51.910;4.430;2022-12-18T18:32:41;18.38;;;10.05;;
55794;SDS011;41716;51.910;4.430;2022-12-18T18:37:43;17.80;;;10.10;;
55794;SDS011;41716;51.910;4.430;2022-12-18T18:42:47;18.17;;;9.30;;
55794;SDS011;41716;51.910;4.430;2022-12-18T18:47:51;19.63;;;10.80;;
55794;SDS011;41716;51.910;4.430;2022-12-18T18:52:52;15.50;;;8.00;;
55794;SDS011;41716;51.910;4.430;2022-12-18T18:57:54;16.83;;;9.15;;
55794;SDS011;41716;51.910;4.430;2022-12-18T19:02:57;17.00;;;10.77;;
55794;SDS011;41716;51.910;4.430;2022-12-18T19:07:59;16.77;;;9.45;;
55794;SDS011;41716;51.910;4.430;2022-12-18T19:13:00;18.92;;;10.18;;
55794;SDS011;41716;51.910;4.430;2022-12-18T19:18:21;18.75;;;10.48;;
55794;SDS011;41716;51.910;4.430;2022-12-18T19:23:24;20.88;;;11.25;;
55794;SDS011;41716;51.910;4.430;2022-12-18T19:28:26;19.83;;;10.75;;
55794;SDS011;41716;51.910;4.430;2022-12-18T19:33:30;17.35;;;9.57;;
55794;SDS011;41716;51.910;4.430;2022-12-18T19:38:33;18.05;;;11.02;;
55794;SDS011;41716;51.910;4.430;2022-12-18T19:43:35;19.02;;;10.63;;
55794;SDS011;41716;51.910;4.430;2022-12-18T19:48:39;17.08;;;9.65;;
55794;SDS011;41716;51.910;4.430;2022-12-18T19:53:41;18.52;;;10.35;;
55794;SDS011;41716;51.910;4.430;2022-12-18T19:58:43;19.65;;;10.10;;
55794;SDS011;41716;51.910;4.430;2022-12-18T20:03:46;17.85;;;10.65;;
55794;SDS011;41716;51.910;4.430;2022-12-18T20:08:48;17.45;;;10.25;;
55794;SDS011;41716;51.910;4.430;2022-12-18T20:13:50;16.90;;;9.95;;
55794;SDS011;41716;51.910;4.430;2022-12-18T20:18:53;19.20;;;9.73;;
55794;SDS011;41716;51.910;4.430;2022-12-18T20:23:55;19.05;;;10.80;;
55794;SDS011;41716;51.910;4.430;2022-12-18T20:28:59;18.60;;;11.07;;
55794;SDS011;41716;51.910;4.430;2022-12-18T20:34:02;18.45;;;10.90;;
55794;SDS011;41716;51.910;4.430;2022-12-18T20:39:04;16.55;;;10.30;;
55794;SDS011;41716;51.910;4.430;2022-12-18T20:44:07;18.42;;;10.68;;
55794;SDS011;41716;51.910;4.430;2022-12-18T20:49:14;17.02;;;9.52;;
55794;SDS011;41716;51.910;4.430;2022-12-18T20:54:15;17.50;;;9.00;;
55794;SDS011;41716;51.910;4.430;2022-12-18T20:59:18;20.52;;;9.90;;
55794;SDS011;41716;51.910;4.430;2022-12-18T21:04:23;17.67;;;9.23;;
55794;SDS011;41716;51.910;4.430;2022-12-18T21:09:25;16.75;;;10.68;;
55794;SDS011;41716;51.910;4.430;2022-12-18T21:14:27;17.60;;;8.35;;
55794;SDS011;41716;51.910;4.430;2022-12-18T21:19:31;17.20;;;10.27;;
55794;SDS011;41716;51.910;4.430;2022-12-18T21:24:32;17.60;;;10.15;;
55794;SDS011;41716;51.910;4.430;2022-12-18T21:29:34;21.73;;;10.05;;
55794;SDS011;41716;51.910;4.430;2022-12-18T21:34:38;19.02;;;11.18;;
55794;SDS011;41716;51.910;4.430;2022-12-18T21:39:40;17.80;;;9.95;;
55794;SDS011;41716;51.910;4.430;2022-12-18T21:44:42;16.75;;;10.48;;
55794;SDS011;41716;51.910;4.430;2022-12-18T21:49:48;17.38;;;9.23;;
55794;SDS011;41716;51.910;4.430;2022-12-18T21:54:50;17.90;;;10.10;;
55794;SDS011;41716;51.910;4.430;2022-12-18T21:59:51;17.23;;;9.30;;
55794;SDS011;41716;51.910;4.430;2022-12-18T22:04:54;16.98;;;9.55;;
55794;SDS011;41716;51.910;4.430;2022-12-18T22:09:56;18.80;;;9.85;;
55794;SDS011;41716;51.910;4.430;2022-12-18T22:14:58;17.05;;;10.23;;
55794;SDS011;41716;51.910;4.430;2022-12-18T22:20:01;20.27;;;10.57;;
55794;SDS011;41716;51.910;4.430;2022-12-18T22:25:03;18.33;;;9.30;;
55794;SDS011;41716;51.910;4.430;2022-12-18T22:30:05;18.58;;;10.20;;
55794;SDS011;41716;51.910;4.430;2022-12-18T22:35:09;16.77;;;8.88;;
55794;SDS011;41716;51.910;4.430;2022-12-18T22:40:12;17.55;;;9.65;;
55794;SDS011;41716;51.910;4.430;2022-12-18T22:45:19;16.27;;;9.55;;
55794;SDS011;41716;51.910;4.430;2022-12-18T22:50:22;16.13;;;8.90;;
55794;SDS011;41716;51.910;4.430;2022-12-18T22:55:24;16.63;;;9.50;;
55794;SDS011;41716;51.910;4.430;2022-12-18T23:00:25;17.20;;;9.30;;
55794;SDS011;41716;51.910;4.430;2022-12-18T23:05:29;18.83;;;10.07;;
55794;SDS011;41716;51.910;4.430;2022-12-18T23:10:31;16.52;;;8.68;;
55794;SDS011;41716;51.910;4.430;2022-12-18T23:15:32;14.60;;;7.75;;
55794;SDS011;41716;51.910;4.430;2022-12-18T23:20:36;15.50;;;9.02;;
55794;SDS011;41716;51.910;4.430;2022-12-18T23:25:37;17.58;;;7.97;;
55794;SDS011;41716;51.910;4.430;2022-12-18T23:30:39;15.38;;;8.13;;
55794;SDS011;41716;51.910;4.430;2022-12-18T23:35:42;14.52;;;8.25;;
55794;SDS011;41716;51.910;4.430;2022-12-18T23:40:44;15.25;;;7.95;;
55794;SDS011;41716;51.910;4.430;2022-12-18T23:45:45;14.30;;;7.85;;
55794;SDS011;41716;51.910;4.430;2022-12-18T23:50:48;13.50;;;7.90;;
55794;SDS011;41716;51.910;4.430;2022-12-18T23:55:50;14.63;;;8.20;;
